South Seaville, New Jersey
Current Conditions -  °F | °C
As of 8:15 PM on Monday 20 Oct 2014 (Local Time) from KWWD Reporting Station
Clear Clear  
Wind Chill: 15°   Ceiling: Unl
Heat Index: 15°   Visibility: 10mi
Dew Point:   Wind: 9mph
Humidity: 55%   Direction: 200°SSW
Pressure: 30.01"   Gusts: NA
Location:  39.18°N, 74.76°W
Report Text: KWWD 210015Z AUTO 20008KT 10SM CLR 15/06 A3001 RMK AO1
Loading
Personal Weather Stations






























Interactive Weather Map
Tropical Storm Tracking
New forecast layout! Learn more

10-Day Weather Forecast

Advertisements
Track Severe Weather on mobile